Time;durP1;ratioP1;P1;durP2;ratioP2;P2;SDS_P1;SDS_P2;PMS_P1;PMS_P2;Temp;Humidity;BMP_temperature;BMP_pressure;BME280_temperature;BME280_humidity;BME280_pressure;Samples;Min_cycle;Max_cycle;Signal;HPM_P1;HPM_P2
2021/01/14 00:00:15;;;;;;;13.25;7.50;;;;;;;;;;5036699;28;20503;-68
2021/01/14 00:02:41;;;;;;;13.45;8.23;;;;;;;;;;5035764;28;20033;-67
2021/01/14 00:05:09;;;;;;;11.15;7.35;;;;;;;;;;5036879;28;20028;-67
2021/01/14 00:07:34;;;;;;;12.30;7.93;;;;;;;;;;5035588;28;20021;-67
2021/01/14 00:10:00;;;;;;;11.75;6.80;;;;;;;;;;5036887;28;20360;-67
2021/01/14 00:12:25;;;;;;;14.18;9.20;;;;;;;;;;5037084;28;20025;-67
2021/01/14 00:14:51;;;;;;;14.75;9.60;;;;;;;;;;5036846;28;20024;-67
2021/01/14 00:17:18;;;;;;;11.25;7.50;;;;;;;;;;5036590;28;20041;-67
2021/01/14 00:19:53;;;;;;;12.73;8.10;;;;;;;;;;5035374;28;20072;-67
2021/01/14 00:22:25;;;;;;;9.40;6.10;;;;;;;;;;5036772;28;20036;-68
2021/01/14 00:24:50;;;;;;;11.80;7.07;;;;;;;;;;5036619;28;20025;-67
2021/01/14 00:27:16;;;;;;;10.57;7.57;;;;;;;;;;5036567;28;20037;-68
2021/01/14 00:29:41;;;;;;;12.65;7.75;;;;;;;;;;5036537;28;20044;-68
2021/01/14 00:32:07;;;;;;;12.85;7.13;;;;;;;;;;5036526;28;20488;-67
2021/01/14 00:34:33;;;;;;;12.60;7.50;;;;;;;;;;5036531;28;20045;-68
2021/01/14 00:39:42;;;;;;;9.00;6.53;;;;;;;;;;5036187;28;20087;-68
2021/01/14 00:42:08;;;;;;;13.50;8.07;;;;;;;;;;5036217;28;20080;-67
2021/01/14 00:44:34;;;;;;;12.50;7.78;;;;;;;;;;5036149;28;20029;-67
2021/01/14 00:46:59;;;;;;;10.40;7.13;;;;;;;;;;5036240;28;20024;-67
2021/01/14 00:49:26;;;;;;;12.90;8.23;;;;;;;;;;5036284;28;20116;-67
2021/01/14 00:51:51;;;;;;;8.93;5.45;;;;;;;;;;5036091;28;20029;-69
2021/01/14 00:54:17;;;;;;;10.57;7.13;;;;;;;;;;5036040;28;20027;-69
2021/01/14 00:56:43;;;;;;;9.82;7.53;;;;;;;;;;5035981;28;20026;-69
2021/01/14 00:59:08;;;;;;;11.90;7.78;;;;;;;;;;5035266;28;20480;-69
2021/01/14 01:01:34;;;;;;;11.30;8.00;;;;;;;;;;5035951;28;20043;-69
2021/01/14 01:04:00;;;;;;;14.10;8.25;;;;;;;;;;5035863;28;20068;-68
2021/01/14 01:06:32;;;;;;;12.02;8.70;;;;;;;;;;5035787;28;20017;-68
2021/01/14 01:08:57;;;;;;;13.40;7.80;;;;;;;;;;5035818;28;20029;-68
2021/01/14 01:11:25;;;;;;;10.48;7.53;;;;;;;;;;5035780;28;20035;-68
2021/01/14 01:14:00;;;;;;;13.80;7.65;;;;;;;;;;5035729;28;20091;-68
2021/01/14 01:16:25;;;;;;;10.68;6.90;;;;;;;;;;5035614;28;20060;-68
2021/01/14 01:18:51;;;;;;;10.90;8.25;;;;;;;;;;5035536;28;20021;-68
2021/01/14 01:21:16;;;;;;;10.15;7.65;;;;;;;;;;5035428;28;20060;-68
2021/01/14 01:23:43;;;;;;;11.63;8.23;;;;;;;;;;5035452;28;20424;-68
2021/01/14 01:26:14;;;;;;;11.63;7.53;;;;;;;;;;5035485;28;20022;-68
2021/01/14 01:28:39;;;;;;;16.13;8.68;;;;;;;;;;5035366;28;20040;-68
2021/01/14 01:31:05;;;;;;;11.25;7.55;;;;;;;;;;5035398;28;20033;-68
2021/01/14 01:33:30;;;;;;;11.48;8.35;;;;;;;;;;5034942;28;20064;-67
2021/01/14 01:35:56;;;;;;;10.15;7.75;;;;;;;;;;5035915;28;20072;-68
2021/01/14 01:38:22;;;;;;;8.32;6.38;;;;;;;;;;5033951;28;20037;-68
2021/01/14 01:40:57;;;;;;;11.77;8.48;;;;;;;;;;5035275;28;20020;-68
2021/01/14 01:43:23;;;;;;;9.35;6.82;;;;;;;;;;5035043;28;20033;-68
2021/01/14 01:45:49;;;;;;;11.20;8.30;;;;;;;;;;5034917;28;20490;-68
2021/01/14 01:48:15;;;;;;;10.80;7.65;;;;;;;;;;5035089;28;20037;-67
2021/01/14 01:50:41;;;;;;;14.10;8.40;;;;;;;;;;5035113;28;20526;-67
2021/01/14 01:53:06;;;;;;;8.65;6.85;;;;;;;;;;5033707;28;20037;-67
2021/01/14 01:55:32;;;;;;;10.65;7.57;;;;;;;;;;5034920;28;20076;-67
2021/01/14 01:57:57;;;;;;;12.55;7.50;;;;;;;;;;5033480;28;20387;-66
2021/01/14 02:00:23;;;;;;;9.95;7.22;;;;;;;;;;5034557;28;20049;-66
2021/01/14 02:02:52;;;;;;;10.38;7.10;;;;;;;;;;5034894;28;20109;-66
2021/01/14 02:05:18;;;;;;;10.75;7.43;;;;;;;;;;5034773;28;20415;-66
2021/01/14 02:08:06;;;;;;;10.35;7.75;;;;;;;;;;5033468;28;20033;-66
2021/01/14 02:10:33;;;;;;;10.48;7.40;;;;;;;;;;5034310;28;20075;-66
2021/01/14 02:13:01;;;;;;;11.88;7.68;;;;;;;;;;5034237;28;20491;-66
2021/01/14 02:15:27;;;;;;;11.32;7.85;;;;;;;;;;5034537;28;20100;-66
2021/01/14 02:17:53;;;;;;;11.23;7.60;;;;;;;;;;5034486;28;20013;-66
2021/01/14 02:20:19;;;;;;;9.32;6.90;;;;;;;;;;5034491;28;20059;-67
2021/01/14 02:22:50;;;;;;;9.85;7.20;;;;;;;;;;5034337;28;20025;-66
2021/01/14 02:25:22;;;;;;;10.07;7.63;;;;;;;;;;5034365;28;20033;-66
2021/01/14 02:27:48;;;;;;;10.85;7.25;;;;;;;;;;5034313;28;20037;-66
2021/01/14 02:30:14;;;;;;;7.90;5.82;;;;;;;;;;5034080;28;20035;-66
2021/01/14 02:32:43;;;;;;;9.63;7.60;;;;;;;;;;5032940;28;20071;-67
2021/01/14 02:35:09;;;;;;;11.05;7.30;;;;;;;;;;5034196;28;20122;-66
2021/01/14 02:37:34;;;;;;;13.55;8.30;;;;;;;;;;5033945;28;20079;-66
2021/01/14 02:39:59;;;;;;;9.77;7.22;;;;;;;;;;5034002;28;20064;-66
2021/01/14 02:42:25;;;;;;;11.00;7.78;;;;;;;;;;5034190;28;20032;-66
2021/01/14 02:44:50;;;;;;;10.52;6.80;;;;;;;;;;5034080;28;20018;-69
2021/01/14 02:47:16;;;;;;;10.50;7.57;;;;;;;;;;5033898;28;20034;-68
2021/01/14 02:49:48;;;;;;;10.82;7.07;;;;;;;;;;5033873;28;20022;-69
2021/01/14 02:52:14;;;;;;;12.13;8.05;;;;;;;;;;5033773;28;20033;-68
2021/01/14 02:54:40;;;;;;;11.05;7.25;;;;;;;;;;5033715;28;20032;-69
2021/01/14 02:57:07;;;;;;;9.93;7.15;;;;;;;;;;5033652;28;20105;-69
2021/01/14 02:59:32;;;;;;;8.82;7.20;;;;;;;;;;5031896;28;20045;-68
2021/01/14 03:01:58;;;;;;;11.30;8.00;;;;;;;;;;5034187;28;20046;-69
2021/01/14 03:04:24;;;;;;;9.95;7.25;;;;;;;;;;5033717;28;20550;-69
2021/01/14 03:06:49;;;;;;;11.48;7.43;;;;;;;;;;5033704;28;20076;-69
2021/01/14 03:09:15;;;;;;;12.50;7.80;;;;;;;;;;5033636;28;20390;-69
2021/01/14 03:11:40;;;;;;;9.35;7.47;;;;;;;;;;5033499;28;20425;-67
2021/01/14 03:14:06;;;;;;;10.43;7.45;;;;;;;;;;5032302;28;20056;-67
2021/01/14 03:16:38;;;;;;;11.52;7.40;;;;;;;;;;5033474;28;20091;-68
2021/01/14 03:19:04;;;;;;;9.65;7.57;;;;;;;;;;5032103;28;20032;-67
2021/01/14 03:21:29;;;;;;;8.25;7.05;;;;;;;;;;5033042;28;20017;-67
2021/01/14 03:23:54;;;;;;;9.82;7.32;;;;;;;;;;5033438;28;20041;-67
2021/01/14 03:26:20;;;;;;;11.25;7.60;;;;;;;;;;5033439;28;20021;-67
2021/01/14 03:28:47;;;;;;;10.20;7.90;;;;;;;;;;5033251;28;20025;-67
2021/01/14 03:31:13;;;;;;;10.18;7.75;;;;;;;;;;5033223;28;20499;-67
2021/01/14 03:33:39;;;;;;;10.98;7.38;;;;;;;;;;5032017;28;20151;-67
2021/01/14 03:36:15;;;;;;;11.02;7.28;;;;;;;;;;5033194;28;20126;-67
2021/01/14 03:38:41;;;;;;;11.63;7.70;;;;;;;;;;5033168;28;20498;-68
2021/01/14 03:41:07;;;;;;;12.30;7.70;;;;;;;;;;5033210;28;20379;-67
2021/01/14 03:43:33;;;;;;;10.93;7.97;;;;;;;;;;5032929;28;20029;-67
2021/01/14 03:46:01;;;;;;;11.02;8.18;;;;;;;;;;5033079;28;20456;-67
2021/01/14 03:48:38;;;;;;;11.25;8.10;;;;;;;;;;5032030;28;20060;-68
2021/01/14 03:51:17;;;;;;;11.15;8.35;;;;;;;;;;5033181;28;20026;-68
2021/01/14 03:53:45;;;;;;;10.18;8.25;;;;;;;;;;5033166;28;20116;-68
2021/01/14 03:56:12;;;;;;;11.07;8.15;;;;;;;;;;5033007;28;20028;-68
2021/01/14 03:58:38;;;;;;;13.32;8.02;;;;;;;;;;5032971;28;20472;-68
2021/01/14 04:01:04;;;;;;;13.13;8.48;;;;;;;;;;5031557;28;20054;-67
2021/01/14 04:03:29;;;;;;;12.80;8.50;;;;;;;;;;5033031;28;20120;-67
2021/01/14 04:05:55;;;;;;;11.50;7.75;;;;;;;;;;5033143;28;20152;-67
2021/01/14 04:08:20;;;;;;;12.10;8.00;;;;;;;;;;5033224;28;20040;-67
2021/01/14 04:10:46;;;;;;;11.73;7.72;;;;;;;;;;5033204;28;20025;-68
2021/01/14 04:13:12;;;;;;;9.35;7.85;;;;;;;;;;5032121;28;20041;-68
2021/01/14 04:15:37;;;;;;;10.60;7.28;;;;;;;;;;5032617;28;20538;-68
2021/01/14 04:18:03;;;;;;;10.35;7.82;;;;;;;;;;5033410;28;20037;-68
2021/01/14 04:20:28;;;;;;;12.02;8.15;;;;;;;;;;5033104;28;20072;-68
2021/01/14 04:22:54;;;;;;;11.88;8.10;;;;;;;;;;5033064;28;20084;-67
2021/01/14 04:25:19;;;;;;;13.05;8.55;;;;;;;;;;5031891;28;20018;-67
2021/01/14 04:27:45;;;;;;;11.95;8.23;;;;;;;;;;5032867;28;20056;-67
2021/01/14 04:30:10;;;;;;;11.77;8.65;;;;;;;;;;5032861;28;20082;-68
2021/01/14 04:32:36;;;;;;;13.68;8.77;;;;;;;;;;5033021;28;20033;-68
2021/01/14 04:35:02;;;;;;;20.02;11.93;;;;;;;;;;5034517;28;20018;-68
2021/01/14 04:37:33;;;;;;;25.70;14.48;;;;;;;;;;5036545;28;20045;-67
2021/01/14 04:40:06;;;;;;;25.35;15.20;;;;;;;;;;5036380;28;20065;-67
2021/01/14 04:42:34;;;;;;;21.15;13.65;;;;;;;;;;5036566;28;20030;-68
2021/01/14 04:45:02;;;;;;;11.00;8.75;;;;;;;;;;5036858;28;20052;-68
2021/01/14 04:47:28;;;;;;;10.88;8.27;;;;;;;;;;5036681;28;20037;-68
2021/01/14 04:49:57;;;;;;;12.32;7.60;;;;;;;;;;5036420;28;20021;-68
2021/01/14 04:52:26;;;;;;;11.35;7.65;;;;;;;;;;5036503;28;20037;-67
2021/01/14 04:54:52;;;;;;;8.85;7.28;;;;;;;;;;5036452;28;20104;-67
2021/01/14 04:57:20;;;;;;;9.23;7.82;;;;;;;;;;5036492;28;20030;-67
2021/01/14 04:59:52;;;;;;;7.88;6.82;;;;;;;;;;5036099;28;20042;-67
2021/01/14 05:02:22;;;;;;;10.43;7.93;;;;;;;;;;5036680;28;20026;-67
2021/01/14 05:04:52;;;;;;;9.60;7.63;;;;;;;;;;5036440;28;20117;-68
2021/01/14 05:07:31;;;;;;;9.15;7.28;;;;;;;;;;5036013;28;20017;-67
2021/01/14 05:10:02;;;;;;;9.60;7.78;;;;;;;;;;5036108;28;20126;-67
2021/01/14 05:12:30;;;;;;;9.82;7.35;;;;;;;;;;5034899;28;20034;-68
2021/01/14 05:14:55;;;;;;;10.07;7.40;;;;;;;;;;5036104;28;20025;-68
2021/01/14 05:17:21;;;;;;;9.57;7.35;;;;;;;;;;5036234;28;20357;-67
2021/01/14 05:19:47;;;;;;;11.05;7.95;;;;;;;;;;5035805;28;20088;-67
2021/01/14 05:22:13;;;;;;;10.30;7.70;;;;;;;;;;5035993;28;20029;-67
2021/01/14 05:24:39;;;;;;;10.32;7.28;;;;;;;;;;5035586;28;20021;-67
2021/01/14 05:27:20;;;;;;;10.70;7.50;;;;;;;;;;5035830;28;20039;-67
2021/01/14 05:30:00;;;;;;;10.40;6.90;;;;;;;;;;5036036;28;20120;-67
2021/01/14 05:32:32;;;;;;;10.52;6.88;;;;;;;;;;5035969;28;20396;-67
2021/01/14 05:34:58;;;;;;;10.00;6.47;;;;;;;;;;5034353;28;20120;-66
2021/01/14 05:37:24;;;;;;;8.88;7.22;;;;;;;;;;5035767;28;20112;-66
2021/01/14 05:39:50;;;;;;;10.07;7.50;;;;;;;;;;5035379;28;20030;-66
2021/01/14 05:42:16;;;;;;;13.43;7.57;;;;;;;;;;5035269;28;20014;-67
2021/01/14 05:44:42;;;;;;;9.95;7.35;;;;;;;;;;5034474;28;20025;-67
2021/01/14 05:47:24;;;;;;;12.88;8.43;;;;;;;;;;5034388;28;20098;-67
2021/01/14 05:49:55;;;;;;;15.38;8.93;;;;;;;;;;5035691;28;20037;-67
2021/01/14 05:52:22;;;;;;;15.38;9.32;;;;;;;;;;5035269;28;20085;-60
2021/01/14 05:55:20;;;;;;;17.55;9.75;;;;;;;;;;5035232;28;20055;-61
2021/01/14 05:57:59;;;;;;;14.70;8.65;;;;;;;;;;5022731;28;20383;-60
2021/01/14 06:00:32;;;;;;;17.48;9.25;;;;;;;;;;5034384;28;20484;-60
2021/01/14 06:02:58;;;;;;;14.25;9.07;;;;;;;;;;5035161;28;20025;-60
2021/01/14 06:05:27;;;;;;;15.50;9.32;;;;;;;;;;5035473;28;20033;-60
2021/01/14 06:07:53;;;;;;;12.88;9.05;;;;;;;;;;5034860;28;20033;-60
2021/01/14 06:10:32;;;;;;;12.50;9.07;;;;;;;;;;5034635;28;20025;-60
2021/01/14 06:12:58;;;;;;;14.52;8.95;;;;;;;;;;5034982;28;20124;-60
2021/01/14 06:15:23;;;;;;;12.23;8.40;;;;;;;;;;5034785;28;20112;-60
2021/01/14 06:17:49;;;;;;;14.23;8.73;;;;;;;;;;5034816;28;20116;-59
2021/01/14 06:20:15;;;;;;;10.10;7.70;;;;;;;;;;5034613;28;20024;-60
2021/01/14 06:22:43;;;;;;;12.85;7.85;;;;;;;;;;5033385;28;20243;-60
2021/01/14 06:25:08;;;;;;;12.40;7.53;;;;;;;;;;5034762;28;20071;-60
2021/01/14 06:27:35;;;;;;;8.98;6.35;;;;;;;;;;5034825;28;20108;-60
2021/01/14 06:30:05;;;;;;;9.32;6.85;;;;;;;;;;5034495;28;20554;-60
2021/01/14 06:32:31;;;;;;;7.28;6.00;;;;;;;;;;5034423;28;20033;-60
2021/01/14 06:34:57;;;;;;;16.77;9.77;;;;;;;;;;5032369;28;20022;-60
2021/01/14 06:37:24;;;;;;;11.35;7.55;;;;;;;;;;5034122;28;20033;-59
2021/01/14 06:39:53;;;;;;;9.23;7.00;;;;;;;;;;5034446;28;20067;-60
2021/01/14 06:42:27;;;;;;;9.88;6.90;;;;;;;;;;5034220;28;20120;-60
2021/01/14 06:44:56;;;;;;;8.07;5.82;;;;;;;;;;5034157;28;20022;-60
2021/01/14 06:47:25;;;;;;;9.95;7.28;;;;;;;;;;5034234;28;20052;-59
2021/01/14 06:50:05;;;;;;;12.98;8.20;;;;;;;;;;5034604;28;20032;-60
2021/01/14 06:52:31;;;;;;;;;;;;;;;;;;5033851;28;20032;-60
2021/01/14 06:54:56;;;;;;;11.30;7.50;;;;;;;;;;5034349;28;19996;-60
2021/01/14 06:57:24;;;;;;;8.27;6.53;;;;;;;;;;5033154;28;20036;-60
2021/01/14 06:59:52;;;;;;;8.70;6.88;;;;;;;;;;5033778;28;20128;-60
2021/01/14 07:02:30;;;;;;;7.07;5.82;;;;;;;;;;5034229;28;20045;-60
2021/01/14 07:05:19;;;;;;;5.95;5.35;;;;;;;;;;5033914;28;20091;-60
2021/01/14 07:07:46;;;;;;;6.90;5.75;;;;;;;;;;5034142;28;20056;-60
2021/01/14 07:10:12;;;;;;;9.80;7.60;;;;;;;;;;5033910;28;20033;-60
2021/01/14 07:12:38;;;;;;;6.75;4.97;;;;;;;;;;5033974;28;20079;-60
2021/01/14 07:15:11;;;;;;;11.18;6.63;;;;;;;;;;5032744;28;20017;-60
2021/01/14 07:17:39;;;;;;;10.05;6.32;;;;;;;;;;5033803;28;20036;-61
2021/01/14 07:20:09;;;;;;;8.23;6.65;;;;;;;;;;5033564;28;20068;-60
2021/01/14 07:23:09;;;;;;;7.50;5.45;;;;;;;;;;5032565;28;20056;-60
2021/01/14 07:25:37;;;;;;;7.97;5.60;;;;;;;;;;5021424;28;20423;-60
2021/01/14 07:28:02;;;;;;;8.23;5.85;;;;;;;;;;5032472;28;20314;-60
2021/01/14 07:30:30;;;;;;;10.65;6.32;;;;;;;;;;5033572;28;20025;-60
2021/01/14 07:33:04;;;;;;;12.98;6.97;;;;;;;;;;5033331;28;20025;-60
2021/01/14 07:35:44;;;;;;;11.88;8.25;;;;;;;;;;5033374;28;20038;-61
2021/01/14 07:38:12;;;;;;;12.15;6.70;;;;;;;;;;5033409;28;20080;-60
2021/01/14 07:40:37;;;;;;;15.48;7.30;;;;;;;;;;5033277;28;20024;-60
2021/01/14 07:43:05;;;;;;;10.77;7.72;;;;;;;;;;5033018;28;20033;-60
2021/01/14 07:45:31;;;;;;;15.02;7.22;;;;;;;;;;5033187;28;20433;-60
2021/01/14 07:48:15;;;;;;;15.40;6.80;;;;;;;;;;5033072;28;20188;-60
2021/01/14 07:50:51;;;;;;;8.85;5.82;;;;;;;;;;5032924;28;20091;-60
2021/01/14 07:53:17;;;;;;;8.55;6.70;;;;;;;;;;5031291;28;20384;-60
2021/01/14 07:55:49;;;;;;;11.48;6.88;;;;;;;;;;5031970;28;20494;-60
2021/01/14 07:58:22;;;;;;;9.65;6.05;;;;;;;;;;5031652;28;20088;-60
2021/01/14 08:00:59;;;;;;;8.68;5.63;;;;;;;;;;5032687;28;20041;-60
2021/01/14 08:03:43;;;;;;;6.50;5.10;;;;;;;;;;5032831;28;20056;-60
2021/01/14 08:06:19;;;;;;;9.30;5.18;;;;;;;;;;5032859;28;20025;-60
2021/01/14 08:09:02;;;;;;;7.55;4.78;;;;;;;;;;5032974;28;20120;-60
2021/01/14 08:11:29;;;;;;;7.07;5.32;;;;;;;;;;5036958;28;20036;-60
2021/01/14 08:14:00;;;;;;;22.98;9.63;;;;;;;;;;5036747;28;20049;-60
2021/01/14 08:16:35;;;;;;;9.95;5.82;;;;;;;;;;5037061;28;20033;-60
2021/01/14 08:19:23;;;;;;;8.68;5.18;;;;;;;;;;5036793;28;20503;-60
2021/01/14 08:21:59;;;;;;;6.70;5.07;;;;;;;;;;5037014;28;20029;-60
2021/01/14 08:24:38;;;;;;;7.13;5.50;;;;;;;;;;5036932;28;20036;-60
2021/01/14 08:27:08;;;;;;;16.45;7.97;;;;;;;;;;5036981;28;20045;-60
2021/01/14 08:29:34;;;;;;;12.57;6.63;;;;;;;;;;5035440;28;20046;-60
2021/01/14 08:32:01;;;;;;;5.97;5.20;;;;;;;;;;5036185;28;20347;-60
2021/01/14 08:34:27;;;;;;;8.13;5.97;;;;;;;;;;5036563;28;20132;-61
2021/01/14 08:36:53;;;;;;;13.27;6.93;;;;;;;;;;5035137;28;20512;-60
2021/01/14 08:39:27;;;;;;;13.20;7.47;;;;;;;;;;5036378;28;20039;-60
2021/01/14 08:41:53;;;;;;;14.38;7.68;;;;;;;;;;5036491;28;20018;-59
2021/01/14 08:44:28;;;;;;;9.85;6.80;;;;;;;;;;5036231;28;20028;-60
2021/01/14 08:46:56;;;;;;;9.30;6.10;;;;;;;;;;5036265;28;20458;-60
2021/01/14 08:49:22;;;;;;;14.77;7.22;;;;;;;;;;5034676;28;20120;-60
2021/01/14 08:51:48;;;;;;;6.97;5.13;;;;;;;;;;5036244;28;20485;-60
2021/01/14 08:54:13;;;;;;;7.65;6.00;;;;;;;;;;5036094;28;20112;-60
2021/01/14 08:56:39;;;;;;;15.43;7.55;;;;;;;;;;5036153;28;20029;-60
2021/01/14 08:59:16;;;;;;;23.92;13.30;;;;;;;;;;5035965;28;20022;-60
2021/01/14 09:01:42;;;;;;;69.22;52.17;;;;;;;;;;5035848;28;20056;-60
2021/01/14 09:04:08;;;;;;;78.82;71.20;;;;;;;;;;5035915;28;20021;-59
2021/01/14 09:06:34;;;;;;;20.90;18.77;;;;;;;;;;5035922;28;20494;-59
2021/01/14 09:09:02;;;;;;;15.23;11.38;;;;;;;;;;5036024;28;20033;-58
2021/01/14 09:11:28;;;;;;;33.13;29.63;;;;;;;;;;5035958;28;20049;-59
2021/01/14 09:14:01;;;;;;;15.93;8.75;;;;;;;;;;5035726;28;20525;-59
2021/01/14 09:16:26;;;;;;;67.10;41.45;;;;;;;;;;5035729;28;20033;-59
2021/01/14 09:18:52;;;;;;;103.70;71.43;;;;;;;;;;5035715;28;20021;-59
2021/01/14 09:21:17;;;;;;;47.95;27.05;;;;;;;;;;5034099;28;20479;-59
2021/01/14 09:23:43;;;;;;;40.22;17.13;;;;;;;;;;5035706;28;20387;-59
2021/01/14 09:26:11;;;;;;;243.98;102.18;;;;;;;;;;5034323;28;20033;-59
2021/01/14 09:28:37;;;;;;;60.17;28.45;;;;;;;;;;5035579;28;20078;-59
2021/01/14 09:31:07;;;;;;;240.90;86.88;;;;;;;;;;5035511;28;20040;-59
2021/01/14 09:33:33;;;;;;;18.65;10.70;;;;;;;;;;5035463;28;20483;-59
2021/01/14 09:36:00;;;;;;;40.83;16.65;;;;;;;;;;5034307;28;20044;-59
2021/01/14 09:38:26;;;;;;;12.48;8.35;;;;;;;;;;5035260;28;20108;-59
2021/01/14 09:40:52;;;;;;;16.08;9.32;;;;;;;;;;5035297;28;20072;-58
2021/01/14 09:43:18;;;;;;;372.98;163.27;;;;;;;;;;5035080;28;20021;-59
2021/01/14 09:45:45;;;;;;;19.38;12.70;;;;;;;;;;5035630;28;20468;-59
2021/01/14 09:48:10;;;;;;;18.83;11.13;;;;;;;;;;5035261;28;20041;-59
2021/01/14 09:50:39;;;;;;;19.15;11.07;;;;;;;;;;5035073;28;20029;-59
2021/01/14 09:53:08;;;;;;;85.10;37.00;;;;;;;;;;5035119;28;20448;-59
2021/01/14 09:55:33;;;;;;;233.82;89.00;;;;;;;;;;5034970;28;20091;-59
2021/01/14 09:57:59;;;;;;;475.48;212.88;;;;;;;;;;5033552;28;20021;-59
2021/01/14 10:00:27;;;;;;;370.83;188.88;;;;;;;;;;5034119;28;20084;-59
2021/01/14 10:03:01;;;;;;;22.20;14.80;;;;;;;;;;5034894;28;20034;-59
2021/01/14 10:05:27;;;;;;;111.57;57.40;;;;;;;;;;5034902;28;20068;-59
2021/01/14 10:07:54;;;;;;;179.55;83.80;;;;;;;;;;5034736;28;20014;-59
2021/01/14 10:10:20;;;;;;;52.50;28.17;;;;;;;;;;5034781;28;20037;-59
2021/01/14 10:12:53;;;;;;;45.45;25.25;;;;;;;;;;5034637;28;20033;-59
2021/01/14 10:15:19;;;;;;;66.38;37.28;;;;;;;;;;5034685;28;20110;-59
2021/01/14 10:17:45;;;;;;;15.40;9.80;;;;;;;;;;5034566;28;20057;-59
2021/01/14 10:20:13;;;;;;;9.73;8.10;;;;;;;;;;5034733;28;20387;-59
2021/01/14 10:22:45;;;;;;;20.35;13.65;;;;;;;;;;5034352;28;20013;-71
2021/01/14 10:25:12;;;;;;;12.80;8.55;;;;;;;;;;5034333;28;20155;-71
2021/01/14 10:27:37;;;;;;;13.48;10.00;;;;;;;;;;5034315;28;20100;-71
2021/01/14 10:30:19;;;;;;;12.20;9.45;;;;;;;;;;5034254;28;20080;-71
2021/01/14 10:32:45;;;;;;;19.65;15.20;;;;;;;;;;5033548;28;20116;-71
2021/01/14 10:35:26;;;;;;;17.75;14.93;;;;;;;;;;5034273;28;20502;-70
2021/01/14 10:38:00;;;;;;;;;;;;;;;;;;5032822;28;20040;-73
2021/01/14 10:40:31;;;;;;;12.70;9.45;;;;;;;;;;5034136;28;19920;-73
2021/01/14 10:42:56;;;;;;;20.30;16.60;;;;;;;;;;5034021;28;20021;-73
2021/01/14 10:45:24;;;;;;;14.32;11.80;;;;;;;;;;5034151;28;20020;-73
2021/01/14 10:47:50;;;;;;;11.00;9.10;;;;;;;;;;5033957;28;20025;-73
2021/01/14 10:50:19;;;;;;;10.20;8.13;;;;;;;;;;5033964;28;20497;-74
2021/01/14 10:53:03;;;;;;;11.35;9.13;;;;;;;;;;5033906;28;20029;-74
2021/01/14 10:55:29;;;;;;;28.42;24.88;;;;;;;;;;5032589;28;20472;-74
2021/01/14 10:57:55;;;;;;;25.52;21.58;;;;;;;;;;5032497;28;20071;-74
2021/01/14 11:00:22;;;;;;;44.40;39.63;;;;;;;;;;5033579;28;20091;-74
2021/01/14 11:02:48;;;;;;;18.65;16.70;;;;;;;;;;5033800;28;20037;-73
2021/01/14 11:05:14;;;;;;;20.60;18.27;;;;;;;;;;5033716;28;20033;-73
2021/01/14 11:07:40;;;;;;;33.15;29.63;;;;;;;;;;5033708;28;20088;-73
2021/01/14 11:10:06;;;;;;;33.28;27.67;;;;;;;;;;5033580;28;20025;-73
2021/01/14 11:12:32;;;;;;;18.88;13.10;;;;;;;;;;5033649;28;20053;-74
2021/01/14 11:14:58;;;;;;;16.80;14.57;;;;;;;;;;5032237;28;20056;-73
2021/01/14 11:17:24;;;;;;;24.08;16.15;;;;;;;;;;5033360;28;20037;-74
2021/01/14 11:19:50;;;;;;;19.90;14.00;;;;;;;;;;5033576;28;20487;-73
2021/01/14 11:22:16;;;;;;;17.83;13.48;;;;;;;;;;5033484;28;20025;-73
2021/01/14 11:24:44;;;;;;;22.70;16.45;;;;;;;;;;5032151;28;20491;-73
2021/01/14 11:27:10;;;;;;;22.63;17.67;;;;;;;;;;5033497;28;20021;-73
2021/01/14 11:29:35;;;;;;;19.45;14.27;;;;;;;;;;5033346;28;20013;-73
2021/01/14 11:32:01;;;;;;;19.85;13.73;;;;;;;;;;5033190;28;20111;-74
2021/01/14 11:34:26;;;;;;;23.55;18.83;;;;;;;;;;5033190;28;20029;-73
2021/01/14 11:36:52;;;;;;;20.27;14.85;;;;;;;;;;5033207;28;20384;-73
2021/01/14 11:39:17;;;;;;;20.05;16.13;;;;;;;;;;5031945;28;20022;-73
2021/01/14 11:41:43;;;;;;;15.38;12.23;;;;;;;;;;5033187;28;20034;-73
2021/01/14 11:44:08;;;;;;;18.08;12.30;;;;;;;;;;5033004;28;20023;-73
2021/01/14 11:46:34;;;;;;;16.83;12.75;;;;;;;;;;5033258;28;20021;-73
2021/01/14 11:48:59;;;;;;;16.75;13.15;;;;;;;;;;5033233;28;20025;-73
2021/01/14 11:51:25;;;;;;;30.60;19.58;;;;;;;;;;5033139;28;20030;-74
2021/01/14 11:53:50;;;;;;;32.33;19.08;;;;;;;;;;5033026;28;20365;-73
2021/01/14 11:56:16;;;;;;;31.95;18.50;;;;;;;;;;5033098;28;20079;-73
2021/01/14 11:58:41;;;;;;;19.35;14.15;;;;;;;;;;5033035;28;20026;-73
2021/01/14 12:01:07;;;;;;;36.35;21.92;;;;;;;;;;5032403;28;20396;-74
2021/01/14 12:03:34;;;;;;;41.97;23.75;;;;;;;;;;5033067;28;20510;-73
2021/01/14 12:06:00;;;;;;;120.90;63.30;;;;;;;;;;5033032;28;20037;-73
2021/01/14 12:08:33;;;;;;;398.67;199.07;;;;;;;;;;5032940;28;20021;-73
2021/01/14 12:11:09;;;;;;;269.67;125.45;;;;;;;;;;5031607;28;20036;-74
2021/01/14 12:13:42;;;;;;;1037.90;534.33;;;;;;;;;;5032888;28;20068;-74
2021/01/14 12:16:17;;;;;;;236.18;106.68;;;;;;;;;;5032836;28;20115;-74
2021/01/14 12:18:42;;;;;;;73.50;33.17;;;;;;;;;;5032862;28;20053;-74
2021/01/14 12:21:08;;;;;;;172.70;71.38;;;;;;;;;;5032876;28;20090;-74
2021/01/14 12:23:33;;;;;;;37.55;17.40;;;;;;;;;;5032853;28;20495;-74
2021/01/14 12:25:59;;;;;;;609.58;232.80;;;;;;;;;;5032703;28;20078;-74
2021/01/14 12:28:24;;;;;;;147.77;56.75;;;;;;;;;;5032675;28;20499;-74
2021/01/14 12:30:50;;;;;;;1497.93;560.63;;;;;;;;;;5032689;28;20020;-74
2021/01/14 12:33:16;;;;;;;1212.65;474.38;;;;;;;;;;5032523;28;20120;-74
2021/01/14 12:35:42;;;;;;;1364.32;565.90;;;;;;;;;;5032731;28;20017;-74
2021/01/14 12:38:07;;;;;;;970.65;381.23;;;;;;;;;;5032615;28;20097;-74
2021/01/14 12:40:33;;;;;;;536.28;211.02;;;;;;;;;;5031456;28;20014;-74
2021/01/14 12:42:58;;;;;;;1077.00;470.85;;;;;;;;;;5032463;28;20030;-74
2021/01/14 12:45:24;;;;;;;490.98;181.05;;;;;;;;;;5031452;28;20017;-74
2021/01/14 12:47:50;;;;;;;1126.07;488.00;;;;;;;;;;5032549;28;20029;-74
2021/01/14 12:50:16;;;;;;;952.97;419.30;;;;;;;;;;5032619;28;20117;-74
2021/01/14 12:52:41;;;;;;;824.08;392.00;;;;;;;;;;5032600;28;20120;-74
2021/01/14 12:55:07;;;;;;;468.85;190.75;;;;;;;;;;5032787;28;20025;-74
2021/01/14 12:57:32;;;;;;;752.75;346.85;;;;;;;;;;5035978;28;20025;-75
2021/01/14 12:59:58;;;;;;;1153.38;560.67;;;;;;;;;;5035782;28;20524;-74
2021/01/14 13:02:23;;;;;;;852.78;438.00;;;;;;;;;;5036034;28;20493;-74
2021/01/14 13:04:49;;;;;;;114.85;52.72;;;;;;;;;;5034869;28;20120;-74
2021/01/14 13:07:15;;;;;;;267.02;123.50;;;;;;;;;;5036123;28;20083;-74
2021/01/14 13:09:41;;;;;;;650.42;330.83;;;;;;;;;;5035783;28;20478;-74
2021/01/14 13:12:06;;;;;;;379.73;179.50;;;;;;;;;;5035923;28;20026;-73
2021/01/14 13:14:32;;;;;;;583.25;321.38;;;;;;;;;;5034461;28;20018;-73
2021/01/14 13:16:58;;;;;;;269.75;133.93;;;;;;;;;;5035744;28;20075;-74
2021/01/14 13:19:23;;;;;;;35.67;19.80;;;;;;;;;;5035668;28;20079;-74
2021/01/14 13:21:50;;;;;;;299.83;151.75;;;;;;;;;;5035702;28;20025;-73
2021/01/14 13:24:19;;;;;;;404.05;227.88;;;;;;;;;;5017729;28;20025;-73
2021/01/14 13:26:46;;;;;;;515.15;284.10;;;;;;;;;;5035516;28;20480;-74
2021/01/14 13:29:15;;;;;;;282.77;146.35;;;;;;;;;;5035603;28;20052;-74
2021/01/14 13:31:45;;;;;;;228.82;107.60;;;;;;;;;;5034303;28;20053;-74
2021/01/14 13:34:11;;;;;;;469.45;267.48;;;;;;;;;;5034040;28;20083;-74
2021/01/14 13:36:37;;;;;;;326.65;182.18;;;;;;;;;;5035301;28;20479;-73
2021/01/14 13:39:03;;;;;;;285.88;174.77;;;;;;;;;;5035298;28;20013;-73
2021/01/14 13:41:31;;;;;;;75.53;45.30;;;;;;;;;;5035412;28;20030;-73
2021/01/14 13:44:05;;;;;;;155.82;104.03;;;;;;;;;;5035208;28;20029;-73
2021/01/14 13:46:44;;;;;;;25.77;18.73;;;;;;;;;;5035527;28;20026;-73
2021/01/14 13:49:11;;;;;;;48.92;38.92;;;;;;;;;;5034507;28;20563;-73
2021/01/14 13:51:37;;;;;;;25.40;17.85;;;;;;;;;;5035154;28;20028;-73
2021/01/14 13:54:06;;;;;;;26.20;18.60;;;;;;;;;;5035101;28;20032;-73
2021/01/14 13:56:41;;;;;;;18.38;12.80;;;;;;;;;;5034711;28;20427;-73
2021/01/14 13:59:06;;;;;;;22.73;15.65;;;;;;;;;;5034853;28;20029;-73
2021/01/14 14:01:33;;;;;;;19.70;13.07;;;;;;;;;;5033899;28;20048;-73
2021/01/14 14:03:59;;;;;;;20.35;12.77;;;;;;;;;;5034880;28;20025;-73
2021/01/14 14:06:27;;;;;;;18.40;13.40;;;;;;;;;;5034414;28;20468;-73
2021/01/14 14:08:53;;;;;;;18.55;12.20;;;;;;;;;;5034282;28;20026;-73
2021/01/14 14:11:18;;;;;;;17.83;13.48;;;;;;;;;;5034532;28;20013;-73
2021/01/14 14:13:44;;;;;;;22.70;14.45;;;;;;;;;;5034411;28;20800;-73
2021/01/14 14:16:13;;;;;;;25.20;15.10;;;;;;;;;;5034707;28;20033;-73
2021/01/14 14:18:39;;;;;;;19.10;12.02;;;;;;;;;;5034548;28;20045;-73
2021/01/14 14:21:04;;;;;;;23.52;13.95;;;;;;;;;;5034873;28;20017;-73
2021/01/14 14:23:31;;;;;;;20.80;12.25;;;;;;;;;;5034723;28;20021;-73
2021/01/14 14:25:57;;;;;;;18.38;12.23;;;;;;;;;;5034977;28;20024;-72
2021/01/14 14:28:22;;;;;;;17.40;11.05;;;;;;;;;;5034589;28;20029;-73
2021/01/14 14:30:48;;;;;;;17.02;11.82;;;;;;;;;;5034474;28;20028;-73
2021/01/14 14:33:14;;;;;;;24.35;15.50;;;;;;;;;;5034515;28;20033;-73